sensor_id;sensor_type;location;lat;lon;timestamp;pressure;altitude;pressure_sealevel;temperature;humidity
23118;BME280;11728;50.624;6.014;2022-09-12T00:04:26;98426.84;;;15.32;91.28
23118;BME280;11728;50.624;6.014;2022-09-12T00:09:27;98419.78;;;15.31;91.15
23118;BME280;11728;50.624;6.014;2022-09-12T00:14:28;98412.97;;;15.23;91.28
23118;BME280;11728;50.624;6.014;2022-09-12T00:19:29;98413.22;;;15.17;91.94
23118;BME280;11728;50.624;6.014;2022-09-12T00:24:30;98405.28;;;15.15;91.55
23118;BME280;11728;50.624;6.014;2022-09-12T00:29:30;98411.59;;;15.13;91.46
23118;BME280;11728;50.624;6.014;2022-09-12T00:34:31;98409.47;;;14.99;91.67
23118;BME280;11728;50.624;6.014;2022-09-12T00:39:31;98412.78;;;14.83;92.35
23118;BME280;11728;50.624;6.014;2022-09-12T00:49:47;98399.06;;;14.70;92.92
23118;BME280;11728;50.624;6.014;2022-09-12T00:54:54;98402.13;;;14.83;93.01
23118;BME280;11728;50.624;6.014;2022-09-12T01:00:00;98397.16;;;14.97;92.78
23118;BME280;11728;50.624;6.014;2022-09-12T01:05:02;98392.97;;;15.13;92.75
23118;BME280;11728;50.624;6.014;2022-09-12T01:10:04;98388.13;;;15.24;92.40
23118;BME280;11728;50.624;6.014;2022-09-12T01:15:06;98386.28;;;15.26;92.39
23118;BME280;11728;50.624;6.014;2022-09-12T01:31:50;98382.34;;;15.13;92.35
23118;BME280;11728;50.624;6.014;2022-09-12T01:47:05;98368.38;;;14.85;93.48
23118;BME280;11728;50.624;6.014;2022-09-12T01:52:26;98367.09;;;14.72;94.05
23118;BME280;11728;50.624;6.014;2022-09-12T01:57:34;98358.66;;;14.61;94.18
23118;BME280;11728;50.624;6.014;2022-09-12T02:02:39;98355.53;;;14.50;94.42
23118;BME280;11728;50.624;6.014;2022-09-12T02:07:51;98348.63;;;14.46;94.85
23118;BME280;11728;50.624;6.014;2022-09-12T02:13:00;98346.22;;;14.39;94.78
23118;BME280;11728;50.624;6.014;2022-09-12T02:18:04;98346.59;;;14.30;94.69
23118;BME280;11728;50.624;6.014;2022-09-12T02:23:09;98343.19;;;14.26;95.15
23118;BME280;11728;50.624;6.014;2022-09-12T02:28:18;98343.97;;;14.28;95.72
23118;BME280;11728;50.624;6.014;2022-09-12T02:38:37;98338.56;;;14.31;95.68
23118;BME280;11728;50.624;6.014;2022-09-12T02:43:40;98335.06;;;14.29;95.20
23118;BME280;11728;50.624;6.014;2022-09-12T02:48:42;98333.78;;;14.16;95.88
23118;BME280;11728;50.624;6.014;2022-09-12T02:53:43;98332.97;;;14.14;96.27
23118;BME280;11728;50.624;6.014;2022-09-12T02:58:43;98331.44;;;14.07;96.51
23118;BME280;11728;50.624;6.014;2022-09-12T03:03:58;98330.91;;;13.98;97.27
23118;BME280;11728;50.624;6.014;2022-09-12T03:09:14;98324.81;;;13.94;97.33
23118;BME280;11728;50.624;6.014;2022-09-12T03:24:52;98316.63;;;14.00;97.44
23118;BME280;11728;50.624;6.014;2022-09-12T03:29:56;98311.50;;;13.96;97.24
23118;BME280;11728;50.624;6.014;2022-09-12T03:34:57;98312.41;;;13.95;97.18
23118;BME280;11728;50.624;6.014;2022-09-12T03:39:58;98315.66;;;14.03;97.64
23118;BME280;11728;50.624;6.014;2022-09-12T03:44:58;98312.00;;;14.07;97.28
23118;BME280;11728;50.624;6.014;2022-09-12T03:49:59;98333.88;;;14.13;97.40
23118;BME280;11728;50.624;6.014;2022-09-12T03:54:59;98318.94;;;14.11;97.39
23118;BME280;11728;50.624;6.014;2022-09-12T04:00:00;98321.84;;;14.03;97.73
23118;BME280;11728;50.624;6.014;2022-09-12T04:05:01;98304.34;;;13.98;97.79
23118;BME280;11728;50.624;6.014;2022-09-12T04:10:02;98307.16;;;13.93;97.97
23118;BME280;11728;50.624;6.014;2022-09-12T04:15:03;98302.91;;;13.89;98.10
23118;BME280;11728;50.624;6.014;2022-09-12T04:20:04;98295.25;;;13.81;98.26
23118;BME280;11728;50.624;6.014;2022-09-12T04:25:06;98297.19;;;13.76;98.59
23118;BME280;11728;50.624;6.014;2022-09-12T04:30:07;98290.16;;;13.75;98.22
23118;BME280;11728;50.624;6.014;2022-09-12T04:35:08;98287.69;;;13.69;98.22
23118;BME280;11728;50.624;6.014;2022-09-12T04:40:10;98284.78;;;13.52;98.69
23118;BME280;11728;50.624;6.014;2022-09-12T04:45:10;98284.38;;;13.38;99.60
23118;BME280;11728;50.624;6.014;2022-09-12T04:50:12;98279.19;;;13.35;99.94
23118;BME280;11728;50.624;6.014;2022-09-12T04:55:14;98274.22;;;13.24;100.00
23118;BME280;11728;50.624;6.014;2022-09-12T05:00:15;98264.59;;;13.22;100.00
23118;BME280;11728;50.624;6.014;2022-09-12T05:05:15;98264.47;;;13.25;100.00
23118;BME280;11728;50.624;6.014;2022-09-12T05:10:16;98259.84;;;13.31;100.00
23118;BME280;11728;50.624;6.014;2022-09-12T05:15:17;98271.28;;;13.33;100.00
23118;BME280;11728;50.624;6.014;2022-09-12T05:20:18;98272.97;;;13.36;100.00
23118;BME280;11728;50.624;6.014;2022-09-12T05:25:18;98278.13;;;13.39;100.00
23118;BME280;11728;50.624;6.014;2022-09-12T05:30:19;98295.84;;;13.38;100.00
23118;BME280;11728;50.624;6.014;2022-09-12T05:35:19;98288.50;;;13.46;100.00
23118;BME280;11728;50.624;6.014;2022-09-12T05:40:20;98298.66;;;13.60;99.91
23118;BME280;11728;50.624;6.014;2022-09-12T05:45:20;98288.81;;;13.87;99.00
23118;BME280;11728;50.624;6.014;2022-09-12T05:50:21;98296.97;;;14.06;98.24
23118;BME280;11728;50.624;6.014;2022-09-12T05:55:22;98300.44;;;14.55;97.08
23118;BME280;11728;50.624;6.014;2022-09-12T06:00:29;98289.03;;;14.96;94.50
23118;BME280;11728;50.624;6.014;2022-09-12T06:05:30;98308.84;;;15.32;93.63
23118;BME280;11728;50.624;6.014;2022-09-12T06:10:32;98303.19;;;15.60;91.95
23118;BME280;11728;50.624;6.014;2022-09-12T06:15:34;98291.75;;;16.18;90.29
23118;BME280;11728;50.624;6.014;2022-09-12T06:20:35;98297.44;;;16.86;87.37
23118;BME280;11728;50.624;6.014;2022-09-12T06:25:36;98291.53;;;17.34;85.09
23118;BME280;11728;50.624;6.014;2022-09-12T06:30:36;98299.72;;;17.82;82.50
23118;BME280;11728;50.624;6.014;2022-09-12T06:35:37;98297.06;;;17.99;81.20
23118;BME280;11728;50.624;6.014;2022-09-12T06:40:42;98297.44;;;18.42;79.54
23118;BME280;11728;50.624;6.014;2022-09-12T06:45:49;98289.06;;;18.48;78.43
23118;BME280;11728;50.624;6.014;2022-09-12T06:51:04;98291.50;;;19.31;75.22
23118;BME280;11728;50.624;6.014;2022-09-12T06:56:14;98284.91;;;20.10;72.55
23118;BME280;11728;50.624;6.014;2022-09-12T07:01:20;98287.31;;;21.26;69.20
23118;BME280;11728;50.624;6.014;2022-09-12T07:06:22;98294.38;;;22.45;66.42
23118;BME280;11728;50.624;6.014;2022-09-12T07:11:25;98290.06;;;22.92;64.46
23118;BME280;11728;50.624;6.014;2022-09-12T07:16:26;98296.00;;;23.10;63.31
23118;BME280;11728;50.624;6.014;2022-09-12T07:21:28;98291.78;;;23.06;62.88
23118;BME280;11728;50.624;6.014;2022-09-12T07:26:28;98296.41;;;22.91;63.55
23118;BME280;11728;50.624;6.014;2022-09-12T07:31:29;98294.16;;;23.10;64.01
23118;BME280;11728;50.624;6.014;2022-09-12T07:36:30;98289.00;;;24.13;60.82
23118;BME280;11728;50.624;6.014;2022-09-12T07:41:31;98287.63;;;24.18;59.60
23118;BME280;11728;50.624;6.014;2022-09-12T07:46:35;98286.78;;;24.18;60.67
23118;BME280;11728;50.624;6.014;2022-09-12T07:51:35;98280.81;;;25.36;57.95
23118;BME280;11728;50.624;6.014;2022-09-12T07:56:36;98284.81;;;26.26;55.55
23118;BME280;11728;50.624;6.014;2022-09-12T08:01:37;98281.50;;;27.04;53.28
23118;BME280;11728;50.624;6.014;2022-09-12T08:06:39;98277.28;;;27.60;51.78
23118;BME280;11728;50.624;6.014;2022-09-12T08:11:39;98278.06;;;26.72;51.88
23118;BME280;11728;50.624;6.014;2022-09-12T08:16:40;98271.66;;;26.53;51.66
23118;BME280;11728;50.624;6.014;2022-09-12T08:21:40;98269.97;;;27.51;49.75
23118;BME280;11728;50.624;6.014;2022-09-12T08:26:41;98271.84;;;29.28;46.25
23118;BME280;11728;50.624;6.014;2022-09-12T08:31:42;98276.66;;;30.49;42.79
23118;BME280;11728;50.624;6.014;2022-09-12T08:36:42;98269.25;;;31.35;41.03
23118;BME280;11728;50.624;6.014;2022-09-12T08:41:48;98259.13;;;32.10;39.27
23118;BME280;11728;50.624;6.014;2022-09-12T08:52:26;98258.34;;;33.36;35.44
23118;BME280;11728;50.624;6.014;2022-09-12T08:57:28;98251.28;;;33.49;34.45
23118;BME280;11728;50.624;6.014;2022-09-12T09:18:24;98242.88;;;33.89;31.08
23118;BME280;11728;50.624;6.014;2022-09-12T09:23:38;98239.72;;;34.30;31.08
23118;BME280;11728;50.624;6.014;2022-09-12T09:28:44;98236.38;;;34.79;30.16
23118;BME280;11728;50.624;6.014;2022-09-12T09:33:48;98248.47;;;35.07;29.38
23118;BME280;11728;50.624;6.014;2022-09-12T09:39:01;98228.22;;;35.08;28.93
23118;BME280;11728;50.624;6.014;2022-09-12T09:44:04;98226.38;;;33.97;29.70
23118;BME280;11728;50.624;6.014;2022-09-12T09:49:05;98234.34;;;34.37;29.21
23118;BME280;11728;50.624;6.014;2022-09-12T09:59:32;98223.97;;;35.06;27.29
23118;BME280;11728;50.624;6.014;2022-09-12T10:04:35;98217.91;;;34.73;27.69
23118;BME280;11728;50.624;6.014;2022-09-12T10:09:38;98207.94;;;35.09;27.57
23118;BME280;11728;50.624;6.014;2022-09-12T10:14:40;98203.47;;;35.66;26.95
23118;BME280;11728;50.624;6.014;2022-09-12T10:19:41;98200.25;;;35.62;27.11
23118;BME280;11728;50.624;6.014;2022-09-12T10:24:47;98177.75;;;36.50;26.38
23118;BME280;11728;50.624;6.014;2022-09-12T10:29:52;98184.75;;;37.01;24.74
23118;BME280;11728;50.624;6.014;2022-09-12T10:35:00;98180.63;;;37.18;24.52
23118;BME280;11728;50.624;6.014;2022-09-12T10:40:03;98173.19;;;37.52;24.04
23118;BME280;11728;50.624;6.014;2022-09-12T10:45:17;98163.41;;;38.09;23.45
23118;BME280;11728;50.624;6.014;2022-09-12T10:50:39;98162.88;;;38.85;22.94
23118;BME280;11728;50.624;6.014;2022-09-12T11:06:44;98147.38;;;37.72;21.99
23118;BME280;11728;50.624;6.014;2022-09-12T11:12:08;98150.19;;;37.79;21.48
23118;BME280;11728;50.624;6.014;2022-09-12T11:17:27;98148.41;;;37.71;21.18
23118;BME280;11728;50.624;6.014;2022-09-12T11:22:35;98129.47;;;38.35;21.54
23118;BME280;11728;50.624;6.014;2022-09-12T11:32:45;98120.19;;;39.50;20.58
23118;BME280;11728;50.624;6.014;2022-09-12T11:53:30;98103.09;;;39.10;20.45
23118;BME280;11728;50.624;6.014;2022-09-12T11:58:34;98096.44;;;39.24;20.38
23118;BME280;11728;50.624;6.014;2022-09-12T12:03:41;98082.88;;;39.16;19.51
23118;BME280;11728;50.624;6.014;2022-09-12T12:08:43;98085.97;;;38.24;19.84
23118;BME280;11728;50.624;6.014;2022-09-12T12:14:04;98079.94;;;37.94;20.30
23118;BME280;11728;50.624;6.014;2022-09-12T12:24:20;98077.19;;;37.81;20.68
23118;BME280;11728;50.624;6.014;2022-09-12T12:34:27;98081.91;;;39.41;19.74
23118;BME280;11728;50.624;6.014;2022-09-12T12:49:56;98069.34;;;38.82;20.20
23118;BME280;11728;50.624;6.014;2022-09-12T12:55:00;98069.06;;;39.09;20.25
23118;BME280;11728;50.624;6.014;2022-09-12T13:00:04;98054.63;;;38.94;19.82
23118;BME280;11728;50.624;6.014;2022-09-12T13:05:19;98061.50;;;39.35;19.72
23118;BME280;11728;50.624;6.014;2022-09-12T13:10:25;98050.50;;;39.23;19.29
23118;BME280;11728;50.624;6.014;2022-09-12T13:20:42;98051.38;;;39.17;19.99
23118;BME280;11728;50.624;6.014;2022-09-12T13:25:51;98035.69;;;39.04;19.33
23118;BME280;11728;50.624;6.014;2022-09-12T13:31:01;98039.53;;;38.97;20.30
23118;BME280;11728;50.624;6.014;2022-09-12T13:46:51;98033.69;;;37.90;21.62
23118;BME280;11728;50.624;6.014;2022-09-12T13:52:02;98023.53;;;36.84;22.36
23118;BME280;11728;50.624;6.014;2022-09-12T13:57:04;98024.53;;;37.04;22.79
23118;BME280;11728;50.624;6.014;2022-09-12T14:02:18;98005.56;;;36.54;22.94
23118;BME280;11728;50.624;6.014;2022-09-12T14:07:21;98001.78;;;36.55;22.95
23118;BME280;11728;50.624;6.014;2022-09-12T14:12:26;98003.97;;;36.66;22.36
23118;BME280;11728;50.624;6.014;2022-09-12T14:22:31;97990.41;;;35.20;23.95
23118;BME280;11728;50.624;6.014;2022-09-12T14:27:46;97984.94;;;34.56;23.91
23118;BME280;11728;50.624;6.014;2022-09-12T14:33:15;97974.81;;;34.13;23.90
23118;BME280;11728;50.624;6.014;2022-09-12T14:43:20;97989.31;;;33.85;25.17
23118;BME280;11728;50.624;6.014;2022-09-12T14:48:25;97986.34;;;34.09;24.14
23118;BME280;11728;50.624;6.014;2022-09-12T14:53:35;97983.50;;;34.46;23.56
23118;BME280;11728;50.624;6.014;2022-09-12T14:58:41;97991.56;;;33.96;24.26
23118;BME280;11728;50.624;6.014;2022-09-12T15:08:42;97981.34;;;32.78;24.97
23118;BME280;11728;50.624;6.014;2022-09-12T15:13:42;97987.66;;;32.40;26.13
23118;BME280;11728;50.624;6.014;2022-09-12T15:18:43;97969.44;;;32.25;26.81
23118;BME280;11728;50.624;6.014;2022-09-12T15:23:49;97966.75;;;32.01;26.73
23118;BME280;11728;50.624;6.014;2022-09-12T15:28:50;97969.00;;;31.50;27.32
23118;BME280;11728;50.624;6.014;2022-09-12T15:33:51;97963.53;;;31.34;27.65
23118;BME280;11728;50.624;6.014;2022-09-12T15:38:51;97943.94;;;31.07;28.15
23118;BME280;11728;50.624;6.014;2022-09-12T15:43:52;97949.53;;;30.89;28.32
23118;BME280;11728;50.624;6.014;2022-09-12T15:48:53;97944.31;;;30.54;28.73
23118;BME280;11728;50.624;6.014;2022-09-12T15:53:53;97941.28;;;30.24;29.50
23118;BME280;11728;50.624;6.014;2022-09-12T15:58:54;97943.25;;;30.06;29.91
23118;BME280;11728;50.624;6.014;2022-09-12T16:03:55;97940.41;;;29.90;30.25
23118;BME280;11728;50.624;6.014;2022-09-12T16:08:56;97944.47;;;29.86;30.95
23118;BME280;11728;50.624;6.014;2022-09-12T16:13:56;97936.78;;;29.82;31.20
23118;BME280;11728;50.624;6.014;2022-09-12T16:18:57;97925.06;;;29.56;30.85
23118;BME280;11728;50.624;6.014;2022-09-12T16:23:58;97928.63;;;29.14;31.50
23118;BME280;11728;50.624;6.014;2022-09-12T16:28:58;97920.91;;;28.84;31.39
23118;BME280;11728;50.624;6.014;2022-09-12T16:33:59;97924.13;;;28.70;31.71
23118;BME280;11728;50.624;6.014;2022-09-12T16:38:59;97921.78;;;28.40;32.44
23118;BME280;11728;50.624;6.014;2022-09-12T16:44:00;97920.44;;;28.17;32.50
23118;BME280;11728;50.624;6.014;2022-09-12T16:49:00;97914.44;;;27.87;32.70
23118;BME280;11728;50.624;6.014;2022-09-12T16:54:01;97905.84;;;27.65;33.55
23118;BME280;11728;50.624;6.014;2022-09-12T16:59:02;97904.47;;;27.42;34.44
23118;BME280;11728;50.624;6.014;2022-09-12T17:04:04;97896.94;;;27.17;34.68
23118;BME280;11728;50.624;6.014;2022-09-12T17:09:05;97893.13;;;26.91;35.54
23118;BME280;11728;50.624;6.014;2022-09-12T17:14:07;97893.59;;;26.68;35.86
23118;BME280;11728;50.624;6.014;2022-09-12T17:19:12;97887.16;;;26.50;36.32
23118;BME280;11728;50.624;6.014;2022-09-12T17:24:14;97899.94;;;26.29;36.97
23118;BME280;11728;50.624;6.014;2022-09-12T17:29:16;97899.03;;;26.10;37.64
23118;BME280;11728;50.624;6.014;2022-09-12T17:34:16;97884.91;;;25.87;38.24
23118;BME280;11728;50.624;6.014;2022-09-12T17:39:17;97869.94;;;25.63;38.66
23118;BME280;11728;50.624;6.014;2022-09-12T17:44:18;97883.19;;;25.27;39.27
23118;BME280;11728;50.624;6.014;2022-09-12T17:49:19;97884.44;;;25.02;40.13
23118;BME280;11728;50.624;6.014;2022-09-12T17:54:21;97889.47;;;24.86;40.99
23118;BME280;11728;50.624;6.014;2022-09-12T17:59:21;97882.00;;;24.59;41.59
23118;BME280;11728;50.624;6.014;2022-09-12T18:04:24;97880.91;;;24.19;41.94
23118;BME280;11728;50.624;6.014;2022-09-12T18:09:27;97882.78;;;24.07;42.44
23118;BME280;11728;50.624;6.014;2022-09-12T18:14:27;97886.00;;;23.91;42.57
23118;BME280;11728;50.624;6.014;2022-09-12T18:19:28;97886.63;;;23.72;43.87
23118;BME280;11728;50.624;6.014;2022-09-12T18:24:28;97883.72;;;23.53;44.45
23118;BME280;11728;50.624;6.014;2022-09-12T18:29:29;97909.34;;;23.37;45.46
23118;BME280;11728;50.624;6.014;2022-09-12T18:34:29;97902.81;;;23.18;46.20
23118;BME280;11728;50.624;6.014;2022-09-12T18:39:30;97897.19;;;22.86;47.38
23118;BME280;11728;50.624;6.014;2022-09-12T18:44:30;97888.25;;;22.75;47.83
23118;BME280;11728;50.624;6.014;2022-09-12T18:49:31;97870.97;;;22.66;47.74
23118;BME280;11728;50.624;6.014;2022-09-12T18:54:31;97882.34;;;22.59;47.77
23118;BME280;11728;50.624;6.014;2022-09-12T18:59:32;97872.91;;;22.53;48.67
23118;BME280;11728;50.624;6.014;2022-09-12T19:04:33;97877.50;;;22.41;49.79
23118;BME280;11728;50.624;6.014;2022-09-12T19:09:33;97871.09;;;22.31;50.16
23118;BME280;11728;50.624;6.014;2022-09-12T19:14:34;97871.75;;;22.22;50.48
23118;BME280;11728;50.624;6.014;2022-09-12T19:19:34;97880.72;;;22.22;50.35
23118;BME280;11728;50.624;6.014;2022-09-12T19:24:35;97892.66;;;22.18;51.09
23118;BME280;11728;50.624;6.014;2022-09-12T19:29:35;97895.31;;;22.07;51.95
23118;BME280;11728;50.624;6.014;2022-09-12T19:34:35;97887.63;;;21.90;52.37
23118;BME280;11728;50.624;6.014;2022-09-12T19:39:36;97885.09;;;21.76;52.69
23118;BME280;11728;50.624;6.014;2022-09-12T19:44:37;97897.81;;;21.62;52.97
23118;BME280;11728;50.624;6.014;2022-09-12T19:49:37;97887.81;;;21.52;53.11
23118;BME280;11728;50.624;6.014;2022-09-12T19:54:37;97877.38;;;21.47;52.60
23118;BME280;11728;50.624;6.014;2022-09-12T19:59:38;97878.16;;;21.37;53.34
23118;BME280;11728;50.624;6.014;2022-09-12T20:04:38;97874.84;;;21.21;53.65
23118;BME280;11728;50.624;6.014;2022-09-12T20:09:39;97870.16;;;20.99;54.84
23118;BME280;11728;50.624;6.014;2022-09-12T20:14:40;97875.97;;;20.81;55.78
23118;BME280;11728;50.624;6.014;2022-09-12T20:19:40;97879.63;;;20.80;55.03
23118;BME280;11728;50.624;6.014;2022-09-12T20:24:41;97885.94;;;20.79;55.72
23118;BME280;11728;50.624;6.014;2022-09-12T20:29:42;97896.75;;;20.65;56.54
23118;BME280;11728;50.624;6.014;2022-09-12T20:34:42;97887.84;;;20.52;56.24
23118;BME280;11728;50.624;6.014;2022-09-12T20:39:43;97894.25;;;20.50;55.79
23118;BME280;11728;50.624;6.014;2022-09-12T20:44:44;97882.47;;;20.52;56.04
23118;BME280;11728;50.624;6.014;2022-09-12T20:49:44;97869.88;;;20.40;56.47
23118;BME280;11728;50.624;6.014;2022-09-12T20:54:44;97862.97;;;20.24;56.49
23118;BME280;11728;50.624;6.014;2022-09-12T20:59:45;97868.31;;;20.11;57.67
23118;BME280;11728;50.624;6.014;2022-09-12T21:04:45;97871.06;;;19.98;58.38
23118;BME280;11728;50.624;6.014;2022-09-12T21:09:46;97871.06;;;19.84;59.39
23118;BME280;11728;50.624;6.014;2022-09-12T21:14:46;97855.72;;;19.73;59.45
23118;BME280;11728;50.624;6.014;2022-09-12T21:19:47;97846.47;;;19.65;59.54
23118;BME280;11728;50.624;6.014;2022-09-12T21:24:47;97835.75;;;19.51;60.25
23118;BME280;11728;50.624;6.014;2022-09-12T21:29:48;97835.66;;;19.26;61.04
23118;BME280;11728;50.624;6.014;2022-09-12T21:34:49;97835.28;;;19.04;62.19
23118;BME280;11728;50.624;6.014;2022-09-12T21:39:50;97833.34;;;18.92;63.05
23118;BME280;11728;50.624;6.014;2022-09-12T21:44:51;97830.09;;;18.87;63.48
23118;BME280;11728;50.624;6.014;2022-09-12T21:49:51;97836.31;;;18.74;64.43
23118;BME280;11728;50.624;6.014;2022-09-12T21:54:52;97832.78;;;18.73;64.21
23118;BME280;11728;50.624;6.014;2022-09-12T21:59:52;97841.38;;;18.92;62.91
23118;BME280;11728;50.624;6.014;2022-09-12T22:04:53;97840.25;;;19.10;61.65
23118;BME280;11728;50.624;6.014;2022-09-12T22:09:54;97835.75;;;19.11;61.61
23118;BME280;11728;50.624;6.014;2022-09-12T22:14:55;97835.69;;;19.12;61.53
23118;BME280;11728;50.624;6.014;2022-09-12T22:19:56;97831.28;;;19.11;61.70
23118;BME280;11728;50.624;6.014;2022-09-12T22:24:56;97835.84;;;19.09;61.67
23118;BME280;11728;50.624;6.014;2022-09-12T22:29:57;97840.16;;;19.12;61.34
23118;BME280;11728;50.624;6.014;2022-09-12T22:34:57;97842.06;;;19.10;61.20
23118;BME280;11728;50.624;6.014;2022-09-12T22:39:58;97836.00;;;19.06;61.42
23118;BME280;11728;50.624;6.014;2022-09-12T22:44:59;97839.47;;;18.94;62.03
23118;BME280;11728;50.624;6.014;2022-09-12T22:49:59;97844.25;;;18.89;62.25
23118;BME280;11728;50.624;6.014;2022-09-12T22:55:00;97848.16;;;18.98;61.06
23118;BME280;11728;50.624;6.014;2022-09-12T23:00:03;97854.00;;;19.04;60.96
23118;BME280;11728;50.624;6.014;2022-09-12T23:05:06;97861.09;;;19.05;61.08
23118;BME280;11728;50.624;6.014;2022-09-12T23:10:07;97857.34;;;18.94;61.93
23118;BME280;11728;50.624;6.014;2022-09-12T23:15:07;97856.03;;;18.87;62.13
23118;BME280;11728;50.624;6.014;2022-09-12T23:20:09;97838.13;;;18.73;63.06
23118;BME280;11728;50.624;6.014;2022-09-12T23:25:09;97838.81;;;18.63;63.38
23118;BME280;11728;50.624;6.014;2022-09-12T23:30:10;97833.91;;;18.55;63.53
23118;BME280;11728;50.624;6.014;2022-09-12T23:35:11;97833.91;;;18.42;63.94
23118;BME280;11728;50.624;6.014;2022-09-12T23:40:12;97819.56;;;18.29;64.68
23118;BME280;11728;50.624;6.014;2022-09-12T23:45:12;97812.88;;;18.22;65.23
23118;BME280;11728;50.624;6.014;2022-09-12T23:50:13;97821.28;;;18.30;65.27
23118;BME280;11728;50.624;6.014;2022-09-12T23:55:13;97816.63;;;18.33;65.02
